Terminal Aerodrome Forecast
Issued by NWS Shreveport, LA

Home | Current Version | Previous Version | Text Only | Print | Product List | Glossary On
Versions: 1 2 3 4 5 6 7 8 9 10 11 12 13 14
000
FTUS44 KSHV 051955 AAB
TAFLFK
TAF AMD
KLFK 051955Z 0520/0618 16013KT P6SM VCTS SCT050CB BKN090 OVC130
      TEMPO 0520/0523 6SM -TSRA BKN040CB OVC090
     FM060000 15010KT P6SM BKN045 BKN120
     FM060800 14008KT 5SM BR OVC015
      TEMPO 0609/0612 3SM BR BKN007 OVC012
     FM061700 15010KT P6SM OVC050=

USA.gov is the U.S. government's official web portal to all federal, state and local government web resources and services.